Latest Weather Observations for Mount Gambier

IDS60801

Issued at 6:02 pm CST Saturday 1 October 2016 (issued every 30 minutes, with the page automatically refreshed every 10 minutes)

About weather observations | Map of weather stations | Latest weather observations for SA | Other Formats
Station Details ID: 026021 Name: MOUNT GAMBIER AERO Lat: -37.75 Lon: 140.77 Height: 63.0 m
Data from the previous 72 hours. | See also: Recent months at Mount Gambier
Date/Time
CST
Temp
°C
App
Temp
°C
Dew
Point
°C
Rel
Hum
%
Delta-T
°C
Wind Press
QNH
hPa
Press
MSL
hPa
Rain since
9am
mm
Dir  Spd
km/h
Gust
km/h
Spd
kts
Gust
kts
01/06:00pm 10.6 8.7 6.8 77 1.8 NW 6 9 3 5 1004.0 1004.0 0.0
01/05:30pm 11.2 7.6 6.8 74 2.1 N 15 20 8 11 1003.8 1003.8 0.0
01/05:00pm 12.3 8.3 6.7 68 2.7 N 17 24 9 13 1004.1 1004.1 0.0
01/04:30pm 12.7 8.1 5.7 62 3.3 NNW 19 30 10 16 1004.2 1004.2 0.0
01/04:00pm 13.2 8.9 5.3 58 3.7 NNW 17 30 9 16 1004.5 1004.5 0.0
01/03:30pm 13.2 8.7 6.1 62 3.4 NNW 19 30 10 16 1004.5 1004.5 0.0
01/03:00pm 13.0 7.0 5.3 59 3.6 NNW 26 37 14 20 1004.5 1004.5 0.0
01/02:30pm 13.3 7.8 6.0 61 3.5 NNW 24 32 13 17 1004.7 1004.7 0.0
01/02:00pm 13.3 8.4 6.7 64 3.2 NNW 22 30 12 16 1004.8 1004.8 0.0
01/01:30pm 13.0 7.2 6.1 63 3.3 NNW 26 33 14 18 1005.0 1005.0 0.0
01/01:00pm 12.9 6.7 6.2 64 3.2 NW 28 35 15 19 1005.0 1005.0 0.0
01/12:30pm 13.3 9.1 7.6 68 2.8 NW 19 26 10 14 1005.0 1005.0 0.0
01/12:00pm 13.2 7.9 6.8 65 3.1 NW 24 30 13 16 1004.8 1004.8 0.0
01/11:30am 12.5 7.6 8.3 75 2.1 NW 24 32 13 17 1005.0 1005.0 0.0
01/11:00am 12.5 8.6 6.9 68 2.7 NW 17 24 9 13 1004.7 1004.7 0.0
01/10:30am 12.0 8.8 8.4 78 1.8 NW 15 20 8 11 1005.0 1005.0 0.0
01/10:00am 12.2 8.7 8.6 78 1.8 WNW 17 24 9 13 1005.3 1005.3 0.0
01/09:41am 11.2 6.8 7.5 78 1.8 WNW 20 28 11 15 1005.4 1005.4 0.0
01/09:30am 10.8 6.2 8.2 84 1.3 WNW 22 30 12 16 1005.5 1005.5 0.0
01/09:17am 10.6 6.8 9.0 90 0.8 WNW 19 24 10 13 1005.4 1005.5 0.0
01/09:04am 10.5 6.7 9.1 91 0.7 NW 19 28 10 15 1005.3 1005.4 0.0
01/09:01am 10.2 6.4 9.0 92 0.6 NW 19 28 10 15 1005.3 1005.4 0.0
01/09:00am 10.4 6.6 9.0 91 0.7 NW 19 28 10 15 1005.2 1005.3 3.6
01/08:35am 10.7 7.2 8.7 87 1.0 WNW 17 22 9 12 1005.1 1005.2 3.4
01/08:30am 10.7 7.2 8.7 87 1.0 WNW 17 22 9 12 1005.2 1005.3 3.4
01/08:00am 9.9 6.4 8.9 93 0.5 WNW 17 22 9 12 1005.2 1005.3 3.4
01/07:30am 9.9 5.4 8.7 92 0.6 WNW 22 30 12 16 1005.0 1005.1 3.2
01/07:00am 9.7 5.8 8.7 93 0.5 WNW 19 26 10 14 1004.6 1004.7 3.2
01/06:30am 9.6 5.7 8.6 93 0.5 WNW 19 30 10 16 1004.2 1004.2 3.2
01/06:00am 9.6 5.5 8.6 93 0.5 WNW 20 28 11 15 1003.6 1003.6 3.2
01/05:41am 9.7 5.2 8.7 93 0.5 WNW 22 30 12 16 1003.3 1003.3 3.2
01/05:30am 9.8 5.0 8.8 93 0.5 WNW 24 32 13 17 1003.1 1003.1 3.2
01/05:28am 9.8 5.0 8.8 93 0.5 WNW 24 32 13 17 1003.1 1003.1 3.2
01/05:08am 9.9 4.7 8.9 93 0.5 W 26 32 14 17 1002.8 1002.8 3.2
01/05:00am 9.9 4.4 9.1 95 0.4 WNW 28 35 15 19 1002.8 1002.8 3.2
01/04:30am 10.0 4.1 9.2 95 0.4 WNW 30 39 16 21 1002.4 1002.4 3.2
01/04:10am 10.2 4.7 9.0 92 0.6 WNW 28 33 15 18 1002.2 1002.2 3.0
01/04:00am 10.2 4.3 9.0 92 0.6 WNW 30 41 16 22 1002.0 1002.0 3.0
01/03:30am 10.3 4.1 9.3 93 0.5 W 32 46 17 25 1001.8 1001.8 3.0
01/03:00am 10.5 4.3 9.3 92 0.6 W 32 39 17 21 1001.6 1001.6 3.0
01/02:30am 10.4 4.9 9.2 92 0.6 W 28 33 15 18 1001.5 1001.5 3.0
01/02:11am 10.3 4.1 9.3 93 0.5 W 32 41 17 22 1001.4 1001.4 3.0
01/02:00am 10.3 3.9 9.3 93 0.5 W 33 48 18 26 1001.3 1001.3 3.0
01/01:52am 10.4 4.2 9.4 93 0.5 W 32 43 17 23 1001.3 1001.3 3.0
01/01:33am 10.5 4.3 9.5 93 0.5 W 32 43 17 23 1001.1 1001.1 3.0
01/01:30am 10.5 4.3 9.5 93 0.5 W 32 43 17 23 1001.1 1001.1 3.0
01/01:19am 10.5 4.1 9.5 93 0.5 W 33 41 18 22 1001.0 1001.0 3.0
01/01:16am 10.5 4.3 9.5 93 0.5 W 32 41 17 22 1001.0 1001.0 3.0
01/01:00am 10.6 4.5 9.6 93 0.5 W 32 46 17 25 1000.9 1000.9 2.8
01/12:58am 10.6 4.9 9.8 95 0.4 W 30 41 16 22 1000.9 1000.9 2.8
01/12:38am 10.7 4.6 9.7 93 0.5 W 32 43 17 23 1000.8 1000.8 2.8
01/12:30am 10.6 4.5 9.8 95 0.4 W 32 41 17 22 1000.7 1000.7 2.8
01/12:21am 10.7 4.6 9.9 95 0.4 W 32 41 17 22 1000.7 1000.7 2.6
01/12:04am 10.7 4.5 9.9 95 0.4 W 33 43 18 23 1000.6 1000.6 2.6
01/12:00am 10.7 4.5 9.9 95 0.4 W 33 44 18 24 1000.6 1000.6 2.6
 
Date/Time
CST
Temp
°C
App
Temp
°C
Dew
Point
°C
Rel
Hum
%
Delta-T
°C
Wind Press
QNH
hPa
Press
MSL
hPa
Rain since
9am
mm
Dir  Spd
km/h
Gust
km/h
Spd
kts
Gust
kts
30/11:30pm 10.9 4.9 10.1 95 0.4 W 32 39 17 21 1000.4 1000.4 2.2
30/11:00pm 10.9 4.9 10.1 95 0.4 W 32 46 17 25 1000.2 1000.2 2.0
30/10:30pm 10.9 5.3 10.1 95 0.4 W 30 39 16 21 1000.1 1000.1 1.8
30/10:28pm 10.9 5.3 10.1 95 0.4 W 30 39 16 21 1000.1 1000.1 1.8
30/10:22pm 10.9 4.9 10.1 95 0.4 W 32 43 17 23 1000.1 1000.1 1.8
30/10:06pm 10.9 4.9 10.1 95 0.4 W 32 50 17 27 1000.2 1000.2 1.6
30/10:00pm 10.9 4.7 10.1 95 0.4 W 33 50 18 27 1000.1 1000.1 1.6
30/09:57pm 11.0 5.0 10.2 95 0.4 W 32 50 17 27 1000.1 1000.1 1.6
30/09:30pm 11.1 5.5 10.3 95 0.4 W 30 39 16 21 1000.1 1000.1 1.6
30/09:10pm 11.3 6.2 10.5 95 0.4 W 28 37 15 20 1000.0 1000.0 1.2
30/09:00pm 11.5 5.9 10.3 92 0.6 W 30 39 16 21 1000.0 1000.0 1.2
30/08:30pm 11.6 6.1 10.4 92 0.6 W 30 39 16 21 999.9 999.9 1.0
30/08:22pm 11.5 6.0 10.5 94 0.5 W 30 39 16 21 999.8 999.8 1.0
30/08:00pm 11.6 6.5 10.6 94 0.5 WSW 28 35 15 19 999.7 999.7 1.0
30/07:38pm 11.6 5.5 10.4 92 0.6 WSW 33 43 18 23 999.4 999.4 1.0
30/07:30pm 11.5 5.6 10.5 94 0.5 WSW 32 41 17 22 999.3 999.3 1.0
30/07:07pm 11.6 5.8 10.8 95 0.4 WSW 32 50 17 27 999.0 999.0 0.8
30/07:01pm 11.6 6.2 10.8 95 0.4 WSW 30 39 16 21 998.9 998.9 0.8
30/07:00pm 11.6 5.8 10.8 95 0.4 WSW 32 39 17 21 998.8 998.8 0.8
30/06:30pm 11.7 5.9 10.9 95 0.4 WSW 32 46 17 25 998.4 998.4 0.6
30/06:25pm 11.7 5.9 10.9 95 0.4 WSW 32 46 17 25 998.4 998.4 0.6
30/06:12pm 11.8 7.1 10.8 94 0.5 WSW 26 37 14 20 998.2 998.2 0.6
30/06:00pm 11.9 6.9 10.8 93 0.6 WSW 28 35 15 19 998.0 998.0 0.6
30/05:56pm 12.0 6.6 10.9 93 0.6 WSW 30 35 16 19 998.0 998.0 0.4
30/05:40pm 12.0 7.0 10.9 93 0.6 WSW 28 39 15 21 997.8 997.8 0.4
30/05:30pm 12.1 6.7 11.0 93 0.6 WSW 30 39 16 21 997.6 997.6 0.4
30/05:23pm 12.1 7.1 11.0 93 0.6 WSW 28 39 15 21 997.5 997.5 0.4
30/05:00pm 12.5 7.6 11.2 92 0.7 WSW 28 39 15 21 997.2 997.2 0.4
30/04:56pm 12.5 7.9 11.2 92 0.7 WSW 26 39 14 21 997.1 997.1 0.4
30/04:30pm 12.3 8.5 11.2 93 0.6 WSW 22 35 12 19 997.0 997.0 0.0
30/04:07pm 12.5 8.3 11.0 90 0.8 WSW 24 33 13 18 996.8 996.8 0.0
30/04:00pm 12.6 8.7 10.7 88 1.0 W 22 28 12 15 996.8 996.8 0.0
30/03:47pm 12.9 8.6 10.6 86 1.2 W 24 30 13 16 996.7 996.7 0.0
30/03:30pm 12.9 8.6 10.8 87 1.1 W 24 32 13 17 996.7 996.7 0.0
30/03:00pm 14.1 8.7 9.5 74 2.4 W 28 35 15 19 996.4 996.4 0.0
30/02:30pm 15.2 10.1 7.6 60 3.8 SW 24 33 13 18 996.0 996.0 0.0
30/02:00pm 15.2 10.9 7.9 61 3.7 SW 20 30 11 16 995.8 995.8 0.0
30/01:30pm 15.0 13.0 10.3 73 2.5 SW 11 19 6 10 995.4 995.5 0.0
30/01:00pm 13.5 12.4 9.9 79 1.9 NNE 6 9 3 5 995.2 995.3 0.0
30/12:30pm 12.5 11.2 9.8 83 1.4 N 7 11 4 6 995.1 995.2 0.0
30/12:00pm 11.6 8.8 10.1 90 0.8 ENE 15 19 8 10 994.7 994.8 0.0
30/11:56am 11.6 8.8 10.1 90 0.8 E 15 19 8 10 994.6 994.7 0.0
30/11:30am 11.4 9.1 10.6 95 0.4 ENE 13 17 7 9 994.3 994.4 0.0
30/11:08am 10.8 8.3 9.6 92 0.6 NE 13 17 7 9 994.2 994.3 0.0
30/11:00am 11.1 8.5 9.5 90 0.8 NE 13 17 7 9 994.1 994.2 0.0
30/10:30am 10.7 7.3 9.3 91 0.7 NNE 17 22 9 12 993.6 993.7 0.0
30/10:00am 10.8 6.7 10.0 95 0.4 NNE 22 28 12 15 993.4 993.5 0.0
30/09:50am 10.9 7.1 9.7 92 0.6 NNE 20 24 11 13 993.2 993.3 0.0
30/09:30am 9.6 5.2 9.0 96 0.3 NNE 22 26 12 14 993.2 993.3 0.0
30/09:00am 9.7 4.9 8.9 95 0.4 NNE 24 30 13 16 992.8 992.9 8.4
30/08:38am 9.5 4.7 8.7 95 0.4 NNE 24 30 13 16 992.7 992.8 8.4
30/08:30am 9.5 5.0 8.7 95 0.4 NNE 22 28 12 15 992.8 992.9 8.4
30/08:00am 9.3 5.7 8.5 95 0.4 NNE 17 20 9 11 993.0 993.1 8.4
30/07:30am 8.5 5.2 8.1 97 0.2 NNE 15 19 8 10 993.1 993.2 8.2
30/07:00am 8.3 6.1 7.9 97 0.2 NNE 9 11 5 6 993.2 993.3 7.2
30/06:30am 8.1 6.2 7.7 97 0.2 NNW 7 9 4 5 993.4 993.5 5.8
30/06:00am 8.2 5.6 7.8 97 0.2 WNW 11 15 6 8 993.3 993.4 4.8
30/05:30am 7.9 4.0 7.3 96 0.3 W 17 19 9 10 993.1 993.2 3.2
30/05:00am 7.9 2.6 6.8 93 0.5 W 24 30 13 16 992.8 992.9 2.2
30/04:30am 6.8 3.8 6.1 95 0.3 NW 11 15 6 8 992.3 992.4 2.2
30/04:00am 6.9 4.3 6.0 94 0.4 WNW 9 11 5 6 992.1 992.1 2.2
30/03:30am 7.4 4.1 6.5 94 0.4 WNW 13 15 7 8 992.0 992.0 2.2
30/03:00am 7.2 3.6 6.6 96 0.3 W 15 17 8 9 991.8 991.8 2.2
30/02:30am 7.3 4.0 6.4 94 0.4 WSW 13 15 7 8 991.6 991.6 2.2
30/02:00am 7.9 5.1 6.8 93 0.5 SW 11 13 6 7 991.6 991.6 2.2
30/01:30am 7.8 4.2 6.9 94 0.4 WSW 15 17 8 9 991.5 991.5 2.2
30/01:00am 7.6 4.7 6.7 94 0.4 SW 11 13 6 7 991.4 991.4 2.2
30/12:30am 8.3 5.5 6.8 90 0.7 S 11 13 6 7 991.3 991.3 2.2
30/12:00am 8.7 4.3 6.6 87 1.0 S 19 26 10 14 991.1 991.1 2.2
 
Date/Time
CST
Temp
°C
App
Temp
°C
Dew
Point
°C
Rel
Hum
%
Delta-T
°C
Wind Press
QNH
hPa
Press
MSL
hPa
Rain since
9am
mm
Dir  Spd
km/h
Gust
km/h
Spd
kts
Gust
kts
29/11:30pm 8.3 4.7 6.8 90 0.7 SSW 15 20 8 11 991.0 991.0 2.2
29/11:00pm 8.1 5.7 6.8 91 0.6 SSW 9 11 5 6 990.6 990.6 2.2
29/10:30pm 8.5 4.5 6.8 89 0.8 SSW 17 24 9 13 990.6 990.6 2.2
29/10:00pm 8.9 3.8 6.1 82 1.3 SW 22 33 12 18 990.2 990.2 2.2
29/09:45pm 8.3 3.9 6.4 88 0.9 SW 19 32 10 17 990.3 990.3 2.0
29/09:30pm 7.3 4.8 6.7 96 0.3 WSW 9 11 5 6 990.1 990.1 2.0
29/09:00pm 7.5 5.0 6.6 94 0.4 SW 9 11 5 6 989.8 989.8 2.0
29/08:30pm 7.3 5.1 6.4 94 0.4 SSE 7 7 4 4 989.5 989.5 2.0
29/08:00pm 7.5 5.3 6.4 93 0.5 S 7 7 4 4 989.3 989.3 2.0
29/07:30pm 7.7 5.2 6.4 91 0.6 SSW 9 11 5 6 988.9 988.9 2.0
29/07:00pm 8.0 5.1 6.5 90 0.7 S 11 11 6 6 988.5 988.5 2.0
29/06:30pm 9.2 5.7 7.1 87 1.0 S 15 17 8 9 987.7 987.7 2.0
29/06:00pm 10.5 7.6 8.1 85 1.2 SSE 13 17 7 9 987.2 987.2 2.0
29/05:30pm 11.5 8.2 8.1 79 1.7 SSE 15 19 8 10 986.6 986.6 2.0
29/05:00pm 11.6 9.1 8.2 79 1.7 SE 11 13 6 7 986.1 986.1 2.0
29/04:30pm 12.3 8.9 5.8 64 3.1 ENE 13 17 7 9 985.7 985.7 2.0
29/04:00pm 11.1 7.6 7.0 76 2.0 ENE 15 19 8 10 985.4 985.4 2.0
29/03:30pm 11.4 8.9 6.4 71 2.4 E 9 13 5 7 985.1 985.1 2.0
29/03:00pm 12.0 9.3 7.5 74 2.2 ESE 11 15 6 8 984.9 984.9 2.0
29/02:37pm 11.1 7.1 6.7 74 2.1 E 17 26 9 14 985.0 985.0 2.0
29/02:30pm 12.2 8.4 7.5 73 2.3 E 17 26 9 14 985.0 985.0 2.0
29/02:00pm 9.7 6.8 8.1 90 0.8 N 13 19 7 10 985.0 985.0 2.0
29/01:59pm 9.8 6.8 7.8 87 1.0 N 13 19 7 10 985.0 985.0 2.0
29/01:45pm 9.2 4.1 7.5 89 0.8 NNE 24 35 13 19 984.9 984.9 1.6
29/01:38pm 10.8 7.3 7.3 79 1.7 ESE 15 33 8 18 984.8 984.8 0.2
29/01:30pm 12.0 8.7 8.0 76 2.0 ESE 15 22 8 12 984.7 984.7 0.2
29/01:00pm 11.5 8.0 7.0 74 2.2 NE 15 20 8 11 984.8 984.8 0.2
29/12:30pm 11.0 6.0 6.6 74 2.1 NE 22 28 12 15 985.1 985.1 0.2
29/12:00pm 10.0 5.0 8.0 87 1.0 NNE 24 35 13 19 985.2 985.2 0.0
29/11:30am 10.7 5.7 8.1 84 1.3 NNE 24 33 13 18 985.3 985.3 0.0
29/11:00am 10.4 4.6 6.4 76 1.9 NE 26 33 14 18 985.4 985.4 0.0
29/10:30am 9.3 3.0 5.6 78 1.7 NNE 28 35 15 19 985.4 985.4 0.0
29/10:00am 9.0 2.5 6.5 84 1.2 NNE 30 39 16 21 985.4 985.4 0.0
29/09:30am 10.4 2.8 5.7 72 2.2 NNE 35 48 19 26 985.0 985.0 0.0
29/09:00am 10.7 3.6 5.6 71 2.4 NNE 32 41 17 22 985.1 985.1 -
29/08:30am 9.7 2.6 5.6 75 1.9 NNE 32 41 17 22 985.2 985.2 -
29/08:00am 9.4 3.1 5.7 78 1.7 NNE 28 35 15 19 985.3 985.3 7.2
29/07:30am 8.6 2.3 5.8 82 1.3 NNE 28 37 15 20 985.4 985.4 -
29/07:00am 8.3 2.8 5.7 84 1.2 NNE 24 30 13 16 985.2 985.2 -
29/06:30am 7.5 1.9 5.3 86 1.0 N 24 33 13 18 985.1 985.1 -
29/06:12am 7.3 1.3 5.5 88 0.8 N 26 35 14 19 984.9 984.9 -
29/06:00am 7.5 2.4 5.8 89 0.8 N 22 30 12 16 984.8 984.8 -
29/05:35am 7.6 2.2 6.5 93 0.5 N 24 32 13 17 984.6 984.6 -
29/05:30am 7.6 3.0 6.5 93 0.5 N 20 30 11 16 984.6 984.6 -
29/05:00am 7.6 3.0 6.3 91 0.6 N 20 30 11 16 984.6 984.6 -
29/04:30am 8.1 3.6 5.9 86 1.0 N 19 30 10 16 984.6 984.6 -
29/04:00am 8.1 3.5 6.4 89 0.8 N 20 30 11 16 984.5 984.5 -
29/03:30am 7.9 2.8 6.2 89 0.8 N 22 30 12 16 984.2 984.2 -
29/03:00am 8.4 4.7 6.5 88 0.9 N 15 19 8 10 984.2 984.2 3.0
29/02:30am 9.2 4.5 6.2 81 1.4 NW 20 30 11 16 984.0 984.0 -
29/02:00am 9.2 5.2 8.2 93 0.5 NW 19 26 10 14 984.4 984.4 -
29/01:35am 9.3 3.2 8.1 92 0.6 NW 30 41 16 22 984.5 984.5 -
29/01:30am 9.3 3.2 8.3 93 0.5 NW 30 41 16 22 984.5 984.5 -
29/01:26am 9.4 2.8 8.6 95 0.4 NW 33 46 18 25 984.6 984.6 -
29/01:10am 9.8 3.3 8.8 93 0.5 NW 33 52 18 28 984.6 984.6 -
29/01:00am 10.0 3.6 9.2 95 0.4 NNW 33 46 18 25 984.5 984.5 -
29/12:55am 10.2 4.4 9.4 95 0.4 NNW 30 46 16 25 984.7 984.7 -
29/12:53am 10.4 4.2 9.4 93 0.5 NNW 32 39 17 21 984.7 984.7 -
29/12:30am 10.6 4.4 9.2 91 0.7 NNW 32 43 17 23 984.4 984.4 -
29/12:16am 11.2 5.7 9.2 87 1.0 NNW 28 50 15 27 984.4 984.4 -
29/12:12am 11.3 6.3 9.5 89 0.9 NNW 26 35 14 19 984.3 984.3 -
29/12:00am 11.6 6.8 10.3 92 0.7 N 26 37 14 20 984.2 984.2 -
 
Date/Time
CST
Temp
°C
App
Temp
°C
Dew
Point
°C
Rel
Hum
%
Delta-T
°C
Wind Press
QNH
hPa
Press
MSL
hPa
Rain since
9am
mm
Dir  Spd
km/h
Gust
km/h
Spd
kts
Gust
kts
28/11:53pm 11.7 6.2 10.6 93 0.6 N 30 43 16 23 984.2 984.2 -
28/11:44pm 11.9 5.6 11.1 95 0.4 NNE 35 44 19 24 984.3 984.3 -
28/11:30pm 12.0 4.9 10.9 93 0.6 NE 39 52 21 28 984.1 984.1 -
28/11:00pm 12.0 3.8 10.5 90 0.8 NE 44 65 24 35 984.3 984.3 -
28/10:52pm 11.9 3.9 10.6 92 0.7 NE 43 65 23 35 984.6 984.6 -
28/10:30pm 12.3 5.8 10.2 87 1.1 NE 35 50 19 27 985.1 985.1 -
28/10:00pm 12.3 4.2 10.0 86 1.2 NE 43 56 23 30 985.5 985.5 -
28/09:45pm 12.6 3.8 9.7 82 1.5 NE 46 65 25 35 986.1 986.1 -
28/09:30pm 12.6 3.8 9.5 81 1.6 NE 46 63 25 34 986.4 986.4 -
28/09:00pm 12.7 4.0 9.8 82 1.5 NE 46 65 25 35 987.5 987.5 -
28/08:55pm 12.6 2.7 9.9 83 1.4 NE 52 70 28 38 987.2 987.2 -
28/08:47pm 12.6 3.8 9.7 82 1.5 NE 46 70 25 38 987.8 987.8 -
28/08:31pm 12.2 5.2 9.9 86 1.2 ENE 37 57 20 31 988.3 988.3 -
28/08:30pm 12.1 5.5 10.0 87 1.1 ENE 35 48 19 26 988.4 988.4 -
28/08:14pm 11.9 5.7 10.2 89 0.9 NE 33 52 18 28 989.1 989.1 -
28/08:00pm 12.0 5.9 10.3 89 0.9 NE 33 50 18 27 990.1 990.1 -
28/07:53pm 11.8 6.6 10.3 90 0.8 NE 28 48 15 26 990.4 990.4 -
28/07:30pm 11.8 6.2 10.3 90 0.8 NE 30 39 16 21 991.0 991.0 -
28/07:00pm 12.5 5.8 9.6 82 1.5 NE 35 50 19 27 991.7 991.7 -
28/06:48pm 12.7 6.3 9.2 79 1.8 NE 33 54 18 29 991.1 991.1 -
28/06:30pm 12.5 6.4 9.6 82 1.5 NE 32 39 17 21 991.6 991.6 -

Other Formats:

Comma delimited format used in spreadsheet applications
http://www.bom.gov.au/fwo/IDS60801/IDS60801.94821.axf

JavaScript Object Notation format (JSON) in row-major order
http://www.bom.gov.au/fwo/IDS60801/IDS60801.94821.json